sensor_id;sensor_type;location;lat;lon;timestamp;temperature;humidity
71879;DHT22;59755;43.834;4.364;2023-01-15T00:02:04;9.40;73.70
71879;DHT22;59755;43.834;4.364;2023-01-15T00:04:30;9.40;73.80
71879;DHT22;59755;43.834;4.364;2023-01-15T00:06:55;9.30;74.10
71879;DHT22;59755;43.834;4.364;2023-01-15T00:09:21;9.40;74.10
71879;DHT22;59755;43.834;4.364;2023-01-15T00:11:46;9.40;74.00
71879;DHT22;59755;43.834;4.364;2023-01-15T00:14:12;9.40;74.20
71879;DHT22;59755;43.834;4.364;2023-01-15T00:16:38;9.40;74.10
71879;DHT22;59755;43.834;4.364;2023-01-15T00:19:05;9.40;74.20
71879;DHT22;59755;43.834;4.364;2023-01-15T00:21:33;9.40;73.80
71879;DHT22;59755;43.834;4.364;2023-01-15T00:23:58;9.40;73.90
71879;DHT22;59755;43.834;4.364;2023-01-15T00:26:43;9.40;73.80
71879;DHT22;59755;43.834;4.364;2023-01-15T00:29:27;9.40;74.20
71879;DHT22;59755;43.834;4.364;2023-01-15T00:34:18;9.30;74.10
71879;DHT22;59755;43.834;4.364;2023-01-15T00:36:44;9.40;73.90
71879;DHT22;59755;43.834;4.364;2023-01-15T00:39:09;9.50;73.40
71879;DHT22;59755;43.834;4.364;2023-01-15T00:41:35;9.50;73.30
71879;DHT22;59755;43.834;4.364;2023-01-15T00:44:00;9.50;73.20
71879;DHT22;59755;43.834;4.364;2023-01-15T00:46:26;9.50;73.30
71879;DHT22;59755;43.834;4.364;2023-01-15T00:48:52;9.50;73.20
71879;DHT22;59755;43.834;4.364;2023-01-15T00:51:17;9.60;73.10
71879;DHT22;59755;43.834;4.364;2023-01-15T00:53:43;9.60;73.10
71879;DHT22;59755;43.834;4.364;2023-01-15T00:56:08;9.60;72.90
71879;DHT22;59755;43.834;4.364;2023-01-15T00:58:34;9.60;72.90
71879;DHT22;59755;43.834;4.364;2023-01-15T01:00:59;9.60;73.30
71879;DHT22;59755;43.834;4.364;2023-01-15T01:03:25;9.60;73.20
71879;DHT22;59755;43.834;4.364;2023-01-15T01:05:51;9.60;73.20
71879;DHT22;59755;43.834;4.364;2023-01-15T01:08:17;9.60;73.10
71879;DHT22;59755;43.834;4.364;2023-01-15T01:10:42;9.60;73.10
71879;DHT22;59755;43.834;4.364;2023-01-15T01:13:08;9.60;73.20
71879;DHT22;59755;43.834;4.364;2023-01-15T01:15:35;9.60;73.40
71879;DHT22;59755;43.834;4.364;2023-01-15T01:18:01;9.60;73.40
71879;DHT22;59755;43.834;4.364;2023-01-15T01:20:26;9.50;73.50
71879;DHT22;59755;43.834;4.364;2023-01-15T01:22:52;9.50;73.60
71879;DHT22;59755;43.834;4.364;2023-01-15T01:25:18;9.50;73.80
71879;DHT22;59755;43.834;4.364;2023-01-15T01:27:44;9.40;74.00
71879;DHT22;59755;43.834;4.364;2023-01-15T01:30:10;9.40;74.40
71879;DHT22;59755;43.834;4.364;2023-01-15T01:32:36;9.40;74.60
71879;DHT22;59755;43.834;4.364;2023-01-15T01:35:01;9.40;74.50
71879;DHT22;59755;43.834;4.364;2023-01-15T01:37:27;9.30;74.90
71879;DHT22;59755;43.834;4.364;2023-01-15T01:39:53;9.30;74.90
71879;DHT22;59755;43.834;4.364;2023-01-15T01:42:19;9.40;74.60
71879;DHT22;59755;43.834;4.364;2023-01-15T01:47:12;9.30;75.50
71879;DHT22;59755;43.834;4.364;2023-01-15T01:49:44;9.40;75.50
71879;DHT22;59755;43.834;4.364;2023-01-15T01:52:12;9.40;75.30
71879;DHT22;59755;43.834;4.364;2023-01-15T01:54:39;9.40;75.60
71879;DHT22;59755;43.834;4.364;2023-01-15T01:57:05;9.30;76.10
71879;DHT22;59755;43.834;4.364;2023-01-15T01:59:31;9.20;76.10
71879;DHT22;59755;43.834;4.364;2023-01-15T02:01:57;9.10;76.20
71879;DHT22;59755;43.834;4.364;2023-01-15T02:04:23;9.00;76.80
71879;DHT22;59755;43.834;4.364;2023-01-15T02:06:50;8.90;77.20
71879;DHT22;59755;43.834;4.364;2023-01-15T02:09:16;8.80;77.70
71879;DHT22;59755;43.834;4.364;2023-01-15T02:11:42;8.80;78.20
71879;DHT22;59755;43.834;4.364;2023-01-15T02:27:15;8.80;77.90
71879;DHT22;59755;43.834;4.364;2023-01-15T02:32:15;8.90;77.30
71879;DHT22;59755;43.834;4.364;2023-01-15T02:34:45;8.90;77.50
71879;DHT22;59755;43.834;4.364;2023-01-15T02:37:13;8.90;77.80
71879;DHT22;59755;43.834;4.364;2023-01-15T02:39:41;8.90;77.70
71879;DHT22;59755;43.834;4.364;2023-01-15T02:42:08;8.90;77.30
71879;DHT22;59755;43.834;4.364;2023-01-15T02:44:35;9.00;77.50
71879;DHT22;59755;43.834;4.364;2023-01-15T02:47:02;9.00;77.10
71879;DHT22;59755;43.834;4.364;2023-01-15T02:49:28;9.10;76.80
71879;DHT22;59755;43.834;4.364;2023-01-15T02:51:57;9.10;76.80
71879;DHT22;59755;43.834;4.364;2023-01-15T02:54:25;9.10;76.80
71879;DHT22;59755;43.834;4.364;2023-01-15T02:56:51;9.20;76.90
71879;DHT22;59755;43.834;4.364;2023-01-15T02:59:19;9.10;77.20
71879;DHT22;59755;43.834;4.364;2023-01-15T03:01:48;9.20;77.10
71879;DHT22;59755;43.834;4.364;2023-01-15T03:09:24;9.20;76.80
71879;DHT22;59755;43.834;4.364;2023-01-15T03:12:01;9.30;76.80
71879;DHT22;59755;43.834;4.364;2023-01-15T03:17:13;9.30;76.30
71879;DHT22;59755;43.834;4.364;2023-01-15T03:22:15;9.40;75.90
71879;DHT22;59755;43.834;4.364;2023-01-15T03:24:46;9.50;75.70
71879;DHT22;59755;43.834;4.364;2023-01-15T03:27:13;9.50;75.50
71879;DHT22;59755;43.834;4.364;2023-01-15T03:29:46;9.60;75.30
71879;DHT22;59755;43.834;4.364;2023-01-15T03:32:13;9.60;75.20
71879;DHT22;59755;43.834;4.364;2023-01-15T03:34:43;9.70;74.80
71879;DHT22;59755;43.834;4.364;2023-01-15T03:37:10;9.70;74.40
71879;DHT22;59755;43.834;4.364;2023-01-15T03:39:36;9.70;74.30
71879;DHT22;59755;43.834;4.364;2023-01-15T03:49:46;9.80;73.90
71879;DHT22;59755;43.834;4.364;2023-01-15T03:57:20;9.80;73.60
71879;DHT22;59755;43.834;4.364;2023-01-15T03:59:54;9.70;73.80
71879;DHT22;59755;43.834;4.364;2023-01-15T04:02:21;9.80;74.20
71879;DHT22;59755;43.834;4.364;2023-01-15T04:04:48;9.80;73.90
71879;DHT22;59755;43.834;4.364;2023-01-15T04:07:14;9.70;74.00
71879;DHT22;59755;43.834;4.364;2023-01-15T04:09:40;9.80;74.10
71879;DHT22;59755;43.834;4.364;2023-01-15T04:12:05;9.70;74.30
71879;DHT22;59755;43.834;4.364;2023-01-15T04:14:31;9.80;74.10
71879;DHT22;59755;43.834;4.364;2023-01-15T04:16:57;9.80;73.90
71879;DHT22;59755;43.834;4.364;2023-01-15T04:19:23;9.80;73.70
71879;DHT22;59755;43.834;4.364;2023-01-15T04:21:48;9.90;73.80
71879;DHT22;59755;43.834;4.364;2023-01-15T04:24:14;9.90;73.80
71879;DHT22;59755;43.834;4.364;2023-01-15T04:26:40;9.80;73.80
71879;DHT22;59755;43.834;4.364;2023-01-15T04:29:05;9.80;73.90
71879;DHT22;59755;43.834;4.364;2023-01-15T04:31:31;9.70;73.60
71879;DHT22;59755;43.834;4.364;2023-01-15T04:33:58;9.80;73.50
71879;DHT22;59755;43.834;4.364;2023-01-15T04:36:23;9.80;73.60
71879;DHT22;59755;43.834;4.364;2023-01-15T04:38:49;9.70;73.30
71879;DHT22;59755;43.834;4.364;2023-01-15T04:41:15;9.80;73.10
71879;DHT22;59755;43.834;4.364;2023-01-15T04:43:59;9.80;72.50
71879;DHT22;59755;43.834;4.364;2023-01-15T04:46:31;9.80;72.50
71879;DHT22;59755;43.834;4.364;2023-01-15T04:48:57;9.80;72.80
71879;DHT22;59755;43.834;4.364;2023-01-15T04:51:22;9.80;73.20
71879;DHT22;59755;43.834;4.364;2023-01-15T04:53:48;9.70;73.60
71879;DHT22;59755;43.834;4.364;2023-01-15T04:56:14;9.70;73.70
71879;DHT22;59755;43.834;4.364;2023-01-15T04:58:39;9.70;73.40
71879;DHT22;59755;43.834;4.364;2023-01-15T05:01:11;9.70;73.50
71879;DHT22;59755;43.834;4.364;2023-01-15T05:03:38;9.70;74.10
71879;DHT22;59755;43.834;4.364;2023-01-15T05:06:04;9.70;74.00
71879;DHT22;59755;43.834;4.364;2023-01-15T05:08:29;9.60;74.20
71879;DHT22;59755;43.834;4.364;2023-01-15T05:10:55;9.60;74.30
71879;DHT22;59755;43.834;4.364;2023-01-15T05:13:21;9.60;74.20
71879;DHT22;59755;43.834;4.364;2023-01-15T05:15:46;9.60;74.20
71879;DHT22;59755;43.834;4.364;2023-01-15T05:18:13;9.70;74.30
71879;DHT22;59755;43.834;4.364;2023-01-15T05:20:41;9.60;74.30
71879;DHT22;59755;43.834;4.364;2023-01-15T05:23:07;9.60;74.50
71879;DHT22;59755;43.834;4.364;2023-01-15T05:25:36;9.60;74.50
71879;DHT22;59755;43.834;4.364;2023-01-15T05:28:02;9.70;74.30
71879;DHT22;59755;43.834;4.364;2023-01-15T05:30:27;9.60;74.30
71879;DHT22;59755;43.834;4.364;2023-01-15T05:32:53;9.50;74.70
71879;DHT22;59755;43.834;4.364;2023-01-15T05:35:19;9.50;74.90
71879;DHT22;59755;43.834;4.364;2023-01-15T05:37:44;9.60;74.60
71879;DHT22;59755;43.834;4.364;2023-01-15T05:40:10;9.60;74.50
71879;DHT22;59755;43.834;4.364;2023-01-15T05:42:36;9.50;74.80
71879;DHT22;59755;43.834;4.364;2023-01-15T05:45:01;9.50;75.00
71879;DHT22;59755;43.834;4.364;2023-01-15T05:47:27;9.50;75.30
71879;DHT22;59755;43.834;4.364;2023-01-15T05:49:52;9.50;75.60
71879;DHT22;59755;43.834;4.364;2023-01-15T05:52:18;9.50;75.70
71879;DHT22;59755;43.834;4.364;2023-01-15T05:54:44;9.50;75.80
71879;DHT22;59755;43.834;4.364;2023-01-15T05:57:10;9.50;75.60
71879;DHT22;59755;43.834;4.364;2023-01-15T05:59:37;9.50;76.00
71879;DHT22;59755;43.834;4.364;2023-01-15T06:02:02;9.50;75.70
71879;DHT22;59755;43.834;4.364;2023-01-15T06:04:28;9.50;75.50
71879;DHT22;59755;43.834;4.364;2023-01-15T06:06:54;9.50;75.70
71879;DHT22;59755;43.834;4.364;2023-01-15T06:09:20;9.50;75.50
71879;DHT22;59755;43.834;4.364;2023-01-15T06:11:47;9.50;75.90
71879;DHT22;59755;43.834;4.364;2023-01-15T06:14:13;9.40;76.20
71879;DHT22;59755;43.834;4.364;2023-01-15T06:16:39;9.30;76.70
71879;DHT22;59755;43.834;4.364;2023-01-15T06:19:05;9.30;77.10
71879;DHT22;59755;43.834;4.364;2023-01-15T06:21:31;9.20;77.40
71879;DHT22;59755;43.834;4.364;2023-01-15T06:23:57;9.10;77.70
71879;DHT22;59755;43.834;4.364;2023-01-15T06:26:23;9.10;78.00
71879;DHT22;59755;43.834;4.364;2023-01-15T06:28:49;9.20;77.70
71879;DHT22;59755;43.834;4.364;2023-01-15T06:31:15;9.20;77.50
71879;DHT22;59755;43.834;4.364;2023-01-15T06:33:42;9.10;77.30
71879;DHT22;59755;43.834;4.364;2023-01-15T06:36:09;9.10;77.10
71879;DHT22;59755;43.834;4.364;2023-01-15T06:38:35;9.10;76.90
71879;DHT22;59755;43.834;4.364;2023-01-15T06:41:01;9.00;77.10
71879;DHT22;59755;43.834;4.364;2023-01-15T06:43:27;8.90;77.30
71879;DHT22;59755;43.834;4.364;2023-01-15T06:46:11;8.80;77.60
71879;DHT22;59755;43.834;4.364;2023-01-15T06:48:56;8.70;77.80
71879;DHT22;59755;43.834;4.364;2023-01-15T06:51:21;8.70;77.60
71879;DHT22;59755;43.834;4.364;2023-01-15T06:53:47;8.70;78.00
71879;DHT22;59755;43.834;4.364;2023-01-15T06:56:13;8.70;78.00
71879;DHT22;59755;43.834;4.364;2023-01-15T06:58:39;8.60;77.80
71879;DHT22;59755;43.834;4.364;2023-01-15T07:01:06;8.60;78.00
71879;DHT22;59755;43.834;4.364;2023-01-15T07:03:32;8.70;77.70
71879;DHT22;59755;43.834;4.364;2023-01-15T07:05:58;8.60;77.70
71879;DHT22;59755;43.834;4.364;2023-01-15T07:08:23;8.60;77.70
71879;DHT22;59755;43.834;4.364;2023-01-15T07:10:49;8.60;77.60
71879;DHT22;59755;43.834;4.364;2023-01-15T07:13:14;8.70;77.50
71879;DHT22;59755;43.834;4.364;2023-01-15T07:15:40;8.60;77.40
71879;DHT22;59755;43.834;4.364;2023-01-15T07:18:05;8.60;77.50
71879;DHT22;59755;43.834;4.364;2023-01-15T07:20:31;8.60;77.50
71879;DHT22;59755;43.834;4.364;2023-01-15T07:22:57;8.60;77.20
71879;DHT22;59755;43.834;4.364;2023-01-15T07:25:22;8.60;77.00
71879;DHT22;59755;43.834;4.364;2023-01-15T07:27:48;8.60;76.80
71879;DHT22;59755;43.834;4.364;2023-01-15T07:30:13;8.60;76.90
71879;DHT22;59755;43.834;4.364;2023-01-15T07:32:39;8.60;76.90
71879;DHT22;59755;43.834;4.364;2023-01-15T07:35:05;8.60;77.00
71879;DHT22;59755;43.834;4.364;2023-01-15T07:37:31;8.60;77.20
71879;DHT22;59755;43.834;4.364;2023-01-15T07:39:56;8.70;76.50
71879;DHT22;59755;43.834;4.364;2023-01-15T07:42:22;8.60;76.70
71879;DHT22;59755;43.834;4.364;2023-01-15T07:45:07;8.60;76.80
71879;DHT22;59755;43.834;4.364;2023-01-15T07:47:52;8.70;76.90
71879;DHT22;59755;43.834;4.364;2023-01-15T07:50:36;8.70;76.40
71879;DHT22;59755;43.834;4.364;2023-01-15T07:53:02;8.70;76.20
71879;DHT22;59755;43.834;4.364;2023-01-15T07:55:27;8.70;76.30
71879;DHT22;59755;43.834;4.364;2023-01-15T07:57:53;8.60;76.70
71879;DHT22;59755;43.834;4.364;2023-01-15T08:00:20;8.70;76.40
71879;DHT22;59755;43.834;4.364;2023-01-15T08:02:46;8.70;76.30
71879;DHT22;59755;43.834;4.364;2023-01-15T08:05:14;8.70;76.60
71879;DHT22;59755;43.834;4.364;2023-01-15T08:07:40;8.80;76.00
71879;DHT22;59755;43.834;4.364;2023-01-15T08:10:07;8.80;75.90
71879;DHT22;59755;43.834;4.364;2023-01-15T08:12:32;8.80;75.80
71879;DHT22;59755;43.834;4.364;2023-01-15T08:15:17;8.80;76.10
71879;DHT22;59755;43.834;4.364;2023-01-15T08:17:43;8.70;76.10
71879;DHT22;59755;43.834;4.364;2023-01-15T08:20:10;8.60;76.80
71879;DHT22;59755;43.834;4.364;2023-01-15T08:22:37;8.70;76.70
71879;DHT22;59755;43.834;4.364;2023-01-15T08:25:03;8.70;76.50
71879;DHT22;59755;43.834;4.364;2023-01-15T08:27:28;8.70;76.50
71879;DHT22;59755;43.834;4.364;2023-01-15T08:29:55;8.80;76.40
71879;DHT22;59755;43.834;4.364;2023-01-15T08:32:21;8.80;76.30
71879;DHT22;59755;43.834;4.364;2023-01-15T08:34:47;8.90;76.20
71879;DHT22;59755;43.834;4.364;2023-01-15T08:37:12;9.00;75.40
71879;DHT22;59755;43.834;4.364;2023-01-15T08:39:38;9.10;74.90
71879;DHT22;59755;43.834;4.364;2023-01-15T08:42:03;9.10;74.80
71879;DHT22;59755;43.834;4.364;2023-01-15T08:44:29;9.10;74.70
71879;DHT22;59755;43.834;4.364;2023-01-15T08:46:55;9.00;74.90
71879;DHT22;59755;43.834;4.364;2023-01-15T08:49:20;9.00;74.90
71879;DHT22;59755;43.834;4.364;2023-01-15T08:51:46;9.00;75.10
71879;DHT22;59755;43.834;4.364;2023-01-15T08:54:16;9.10;74.50
71879;DHT22;59755;43.834;4.364;2023-01-15T08:56:42;9.20;73.90
71879;DHT22;59755;43.834;4.364;2023-01-15T08:59:07;9.30;74.00
71879;DHT22;59755;43.834;4.364;2023-01-15T09:01:33;9.50;73.60
71879;DHT22;59755;43.834;4.364;2023-01-15T09:03:59;9.50;72.70
71879;DHT22;59755;43.834;4.364;2023-01-15T09:06:25;9.50;72.60
71879;DHT22;59755;43.834;4.364;2023-01-15T09:08:51;9.50;72.70
71879;DHT22;59755;43.834;4.364;2023-01-15T09:11:16;9.50;72.70
71879;DHT22;59755;43.834;4.364;2023-01-15T09:13:42;9.40;72.90
71879;DHT22;59755;43.834;4.364;2023-01-15T09:16:08;9.50;73.20
71879;DHT22;59755;43.834;4.364;2023-01-15T09:18:37;9.60;73.80
71879;DHT22;59755;43.834;4.364;2023-01-15T09:21:06;9.70;73.60
71879;DHT22;59755;43.834;4.364;2023-01-15T09:23:32;9.90;73.50
71879;DHT22;59755;43.834;4.364;2023-01-15T09:26:01;10.00;73.60
71879;DHT22;59755;43.834;4.364;2023-01-15T09:28:29;10.00;73.40
71879;DHT22;59755;43.834;4.364;2023-01-15T09:30:55;10.10;73.10
71879;DHT22;59755;43.834;4.364;2023-01-15T09:33:21;10.20;73.30
71879;DHT22;59755;43.834;4.364;2023-01-15T09:35:46;10.30;72.90
71879;DHT22;59755;43.834;4.364;2023-01-15T09:38:16;10.40;71.20
71879;DHT22;59755;43.834;4.364;2023-01-15T09:40:52;10.50;70.90
71879;DHT22;59755;43.834;4.364;2023-01-15T09:43:43;10.70;69.30
71879;DHT22;59755;43.834;4.364;2023-01-15T09:56:27;11.50;63.00
71879;DHT22;59755;43.834;4.364;2023-01-15T09:58:54;11.70;63.00
71879;DHT22;59755;43.834;4.364;2023-01-15T10:01:23;12.00;61.40
71879;DHT22;59755;43.834;4.364;2023-01-15T10:03:52;11.90;60.90
71879;DHT22;59755;43.834;4.364;2023-01-15T10:06:23;12.20;59.80
71879;DHT22;59755;43.834;4.364;2023-01-15T10:08:58;12.70;58.70
71879;DHT22;59755;43.834;4.364;2023-01-15T10:11:37;12.90;58.60
71879;DHT22;59755;43.834;4.364;2023-01-15T10:14:30;13.30;57.40
71879;DHT22;59755;43.834;4.364;2023-01-15T10:16:56;13.70;56.00
71879;DHT22;59755;43.834;4.364;2023-01-15T10:19:22;13.90;55.60
71879;DHT22;59755;43.834;4.364;2023-01-15T10:21:56;14.20;54.40
71879;DHT22;59755;43.834;4.364;2023-01-15T10:24:33;14.20;54.80
71879;DHT22;59755;43.834;4.364;2023-01-15T10:27:03;14.20;54.60
71879;DHT22;59755;43.834;4.364;2023-01-15T10:37:31;15.00;52.90
71879;DHT22;59755;43.834;4.364;2023-01-15T10:42:42;15.00;53.10
71879;DHT22;59755;43.834;4.364;2023-01-15T10:47:38;13.80;56.30
71879;DHT22;59755;43.834;4.364;2023-01-15T10:50:15;13.80;56.80
71879;DHT22;59755;43.834;4.364;2023-01-15T10:52:42;13.70;58.10
71879;DHT22;59755;43.834;4.364;2023-01-15T10:55:23;13.70;58.30
71879;DHT22;59755;43.834;4.364;2023-01-15T11:00:16;13.40;60.10
71879;DHT22;59755;43.834;4.364;2023-01-15T11:03:26;13.50;60.40
71879;DHT22;59755;43.834;4.364;2023-01-15T11:05:32;13.60;60.00
71879;DHT22;59755;43.834;4.364;2023-01-15T11:07:58;13.90;59.80
71879;DHT22;59755;43.834;4.364;2023-01-15T11:10:24;14.00;59.60
71879;DHT22;59755;43.834;4.364;2023-01-15T11:15:34;14.40;59.00
71879;DHT22;59755;43.834;4.364;2023-01-15T11:18:23;14.50;59.20
71879;DHT22;59755;43.834;4.364;2023-01-15T11:21:09;14.70;59.00
71879;DHT22;59755;43.834;4.364;2023-01-15T11:23:35;14.80;59.40
71879;DHT22;59755;43.834;4.364;2023-01-15T11:26:01;15.00;59.10
71879;DHT22;59755;43.834;4.364;2023-01-15T11:28:38;15.00;59.80
71879;DHT22;59755;43.834;4.364;2023-01-15T11:31:11;15.00;59.80
71879;DHT22;59755;43.834;4.364;2023-01-15T11:33:37;14.90;60.00
71879;DHT22;59755;43.834;4.364;2023-01-15T11:36:07;14.70;58.90
71879;DHT22;59755;43.834;4.364;2023-01-15T11:38:41;14.70;58.30
71879;DHT22;59755;43.834;4.364;2023-01-15T11:44:11;14.80;57.50
71879;DHT22;59755;43.834;4.364;2023-01-15T11:46:55;14.60;57.30
71879;DHT22;59755;43.834;4.364;2023-01-15T11:49:39;14.20;58.20
71879;DHT22;59755;43.834;4.364;2023-01-15T11:52:32;14.30;56.50
71879;DHT22;59755;43.834;4.364;2023-01-15T11:54:57;14.40;56.60
71879;DHT22;59755;43.834;4.364;2023-01-15T11:57:29;14.20;57.10
71879;DHT22;59755;43.834;4.364;2023-01-15T11:59:55;14.40;56.70
71879;DHT22;59755;43.834;4.364;2023-01-15T12:02:35;14.50;56.00
71879;DHT22;59755;43.834;4.364;2023-01-15T12:05:05;14.50;55.70
71879;DHT22;59755;43.834;4.364;2023-01-15T12:07:31;14.80;55.90
71879;DHT22;59755;43.834;4.364;2023-01-15T12:15:20;14.20;56.60
71879;DHT22;59755;43.834;4.364;2023-01-15T12:18:13;14.20;57.10
71879;DHT22;59755;43.834;4.364;2023-01-15T12:23:29;14.20;57.40
71879;DHT22;59755;43.834;4.364;2023-01-15T12:26:18;14.20;57.10
71879;DHT22;59755;43.834;4.364;2023-01-15T12:28:51;13.90;57.70
71879;DHT22;59755;43.834;4.364;2023-01-15T12:31:23;13.80;58.50
71879;DHT22;59755;43.834;4.364;2023-01-15T12:34:33;13.70;58.90
71879;DHT22;59755;43.834;4.364;2023-01-15T12:36:44;13.70;59.00
71879;DHT22;59755;43.834;4.364;2023-01-15T12:39:28;13.60;59.80
71879;DHT22;59755;43.834;4.364;2023-01-15T12:41:58;13.40;60.70
71879;DHT22;59755;43.834;4.364;2023-01-15T12:53:03;13.10;62.50
71879;DHT22;59755;43.834;4.364;2023-01-15T12:55:32;13.00;61.80
71879;DHT22;59755;43.834;4.364;2023-01-15T12:58:01;12.80;62.10
71879;DHT22;59755;43.834;4.364;2023-01-15T13:00:29;12.70;62.50
71879;DHT22;59755;43.834;4.364;2023-01-15T13:06:14;12.60;61.60
71879;DHT22;59755;43.834;4.364;2023-01-15T13:08:39;12.70;61.60
71879;DHT22;59755;43.834;4.364;2023-01-15T13:11:09;12.60;61.80
71879;DHT22;59755;43.834;4.364;2023-01-15T13:13:37;12.60;62.10
71879;DHT22;59755;43.834;4.364;2023-01-15T13:16:06;12.50;62.70
71879;DHT22;59755;43.834;4.364;2023-01-15T13:19:18;12.50;63.20
71879;DHT22;59755;43.834;4.364;2023-01-15T13:21:23;12.40;63.60
71879;DHT22;59755;43.834;4.364;2023-01-15T13:26:23;12.40;64.30
71879;DHT22;59755;43.834;4.364;2023-01-15T13:34:11;12.40;65.00
71879;DHT22;59755;43.834;4.364;2023-01-15T13:36:38;12.40;65.50
71879;DHT22;59755;43.834;4.364;2023-01-15T13:39:06;12.40;65.70
71879;DHT22;59755;43.834;4.364;2023-01-15T13:41:35;12.40;65.80
71879;DHT22;59755;43.834;4.364;2023-01-15T13:44:20;12.40;66.00
71879;DHT22;59755;43.834;4.364;2023-01-15T13:46:47;12.40;66.30
71879;DHT22;59755;43.834;4.364;2023-01-15T13:49:23;12.30;66.20
71879;DHT22;59755;43.834;4.364;2023-01-15T13:51:53;12.20;66.60
71879;DHT22;59755;43.834;4.364;2023-01-15T13:54:23;12.20;66.40
71879;DHT22;59755;43.834;4.364;2023-01-15T13:56:50;12.20;66.20
71879;DHT22;59755;43.834;4.364;2023-01-15T14:02:24;12.20;66.00
71879;DHT22;59755;43.834;4.364;2023-01-15T14:04:50;12.10;66.10
71879;DHT22;59755;43.834;4.364;2023-01-15T14:07:19;12.20;65.80
71879;DHT22;59755;43.834;4.364;2023-01-15T14:09:48;12.10;65.70
71879;DHT22;59755;43.834;4.364;2023-01-15T14:12:21;12.10;65.60
71879;DHT22;59755;43.834;4.364;2023-01-15T14:22:53;12.10;66.00
71879;DHT22;59755;43.834;4.364;2023-01-15T14:25:24;12.10;66.10
71879;DHT22;59755;43.834;4.364;2023-01-15T14:27:59;12.10;66.00
71879;DHT22;59755;43.834;4.364;2023-01-15T14:35:51;12.10;63.90
71879;DHT22;59755;43.834;4.364;2023-01-15T14:38:18;12.10;63.50
71879;DHT22;59755;43.834;4.364;2023-01-15T14:41:03;12.00;63.20
71879;DHT22;59755;43.834;4.364;2023-01-15T14:43:32;12.00;63.30
71879;DHT22;59755;43.834;4.364;2023-01-15T14:46:18;12.00;63.20
71879;DHT22;59755;43.834;4.364;2023-01-15T14:48:46;12.00;62.70
71879;DHT22;59755;43.834;4.364;2023-01-15T14:53:50;12.00;61.20
71879;DHT22;59755;43.834;4.364;2023-01-15T14:56:23;11.90;60.60
71879;DHT22;59755;43.834;4.364;2023-01-15T15:03:53;12.00;61.50
71879;DHT22;59755;43.834;4.364;2023-01-15T15:06:20;12.00;61.60
71879;DHT22;59755;43.834;4.364;2023-01-15T15:08:46;12.00;61.60
71879;DHT22;59755;43.834;4.364;2023-01-15T15:11:14;12.00;61.50
71879;DHT22;59755;43.834;4.364;2023-01-15T15:14:03;12.00;61.50
71879;DHT22;59755;43.834;4.364;2023-01-15T15:16:29;12.00;61.20
71879;DHT22;59755;43.834;4.364;2023-01-15T15:18:59;12.00;61.10
71879;DHT22;59755;43.834;4.364;2023-01-15T15:21:30;12.00;60.60
71879;DHT22;59755;43.834;4.364;2023-01-15T15:24:05;12.00;59.60
71879;DHT22;59755;43.834;4.364;2023-01-15T15:31:26;12.00;58.60
71879;DHT22;59755;43.834;4.364;2023-01-15T15:33:53;11.90;58.10
71879;DHT22;59755;43.834;4.364;2023-01-15T15:36:19;11.90;57.70
71879;DHT22;59755;43.834;4.364;2023-01-15T15:38:52;11.90;57.90
71879;DHT22;59755;43.834;4.364;2023-01-15T15:41:17;11.90;57.80
71879;DHT22;59755;43.834;4.364;2023-01-15T15:44:03;11.80;58.40
71879;DHT22;59755;43.834;4.364;2023-01-15T15:46:48;11.80;59.40
71879;DHT22;59755;43.834;4.364;2023-01-15T15:49:39;11.80;60.70
71879;DHT22;59755;43.834;4.364;2023-01-15T15:52:16;11.80;61.50
71879;DHT22;59755;43.834;4.364;2023-01-15T15:54:43;11.80;62.20
71879;DHT22;59755;43.834;4.364;2023-01-15T15:57:12;11.70;62.70
71879;DHT22;59755;43.834;4.364;2023-01-15T15:59:44;11.50;63.20
71879;DHT22;59755;43.834;4.364;2023-01-15T16:02:29;11.40;63.50
71879;DHT22;59755;43.834;4.364;2023-01-15T16:04:59;11.40;63.70
71879;DHT22;59755;43.834;4.364;2023-01-15T16:07:26;11.30;64.10
71879;DHT22;59755;43.834;4.364;2023-01-15T16:09:53;11.30;64.40
71879;DHT22;59755;43.834;4.364;2023-01-15T16:12:20;11.20;64.40
71879;DHT22;59755;43.834;4.364;2023-01-15T16:14:46;11.10;65.00
71879;DHT22;59755;43.834;4.364;2023-01-15T16:17:13;10.90;65.60
71879;DHT22;59755;43.834;4.364;2023-01-15T16:19:39;10.90;65.40
71879;DHT22;59755;43.834;4.364;2023-01-15T16:22:06;10.80;65.50
71879;DHT22;59755;43.834;4.364;2023-01-15T16:24:32;10.70;65.90
71879;DHT22;59755;43.834;4.364;2023-01-15T16:27:02;10.80;66.00
71879;DHT22;59755;43.834;4.364;2023-01-15T16:29:30;10.70;66.40
71879;DHT22;59755;43.834;4.364;2023-01-15T16:31:57;10.60;66.40
71879;DHT22;59755;43.834;4.364;2023-01-15T16:34:25;10.50;66.50
71879;DHT22;59755;43.834;4.364;2023-01-15T16:36:52;10.60;66.40
71879;DHT22;59755;43.834;4.364;2023-01-15T16:41:43;10.40;66.50
71879;DHT22;59755;43.834;4.364;2023-01-15T16:44:09;10.30;66.70
71879;DHT22;59755;43.834;4.364;2023-01-15T16:46:54;10.30;67.00
71879;DHT22;59755;43.834;4.364;2023-01-15T16:51:47;10.20;67.30
71879;DHT22;59755;43.834;4.364;2023-01-15T16:56:54;10.10;67.80
71879;DHT22;59755;43.834;4.364;2023-01-15T17:04:30;10.00;68.40
71879;DHT22;59755;43.834;4.364;2023-01-15T17:06:56;10.00;68.50
71879;DHT22;59755;43.834;4.364;2023-01-15T17:09:23;10.00;68.50
71879;DHT22;59755;43.834;4.364;2023-01-15T17:11:49;10.00;68.20
71879;DHT22;59755;43.834;4.364;2023-01-15T17:14:18;9.90;68.60
71879;DHT22;59755;43.834;4.364;2023-01-15T17:16:44;9.90;68.90
71879;DHT22;59755;43.834;4.364;2023-01-15T17:19:10;9.90;69.10
71879;DHT22;59755;43.834;4.364;2023-01-15T17:21:36;9.90;69.00
71879;DHT22;59755;43.834;4.364;2023-01-15T17:24:03;9.90;69.00
71879;DHT22;59755;43.834;4.364;2023-01-15T17:26:29;9.90;69.10
71879;DHT22;59755;43.834;4.364;2023-01-15T17:28:55;9.80;69.50
71879;DHT22;59755;43.834;4.364;2023-01-15T17:31:24;9.80;69.50
71879;DHT22;59755;43.834;4.364;2023-01-15T17:33:50;9.80;69.80
71879;DHT22;59755;43.834;4.364;2023-01-15T17:36:17;9.70;69.60
71879;DHT22;59755;43.834;4.364;2023-01-15T17:38:42;9.60;69.60
71879;DHT22;59755;43.834;4.364;2023-01-15T17:41:09;9.50;69.70
71879;DHT22;59755;43.834;4.364;2023-01-15T17:43:35;9.60;69.60
71879;DHT22;59755;43.834;4.364;2023-01-15T17:46:01;9.50;69.40
71879;DHT22;59755;43.834;4.364;2023-01-15T17:48:27;9.50;69.50
71879;DHT22;59755;43.834;4.364;2023-01-15T17:50:53;9.40;69.80
71879;DHT22;59755;43.834;4.364;2023-01-15T17:53:20;9.40;69.80
71879;DHT22;59755;43.834;4.364;2023-01-15T17:55:45;9.40;70.10
71879;DHT22;59755;43.834;4.364;2023-01-15T17:58:29;9.40;69.20
71879;DHT22;59755;43.834;4.364;2023-01-15T18:01:18;9.40;69.30
71879;DHT22;59755;43.834;4.364;2023-01-15T18:04:02;9.30;69.50
71879;DHT22;59755;43.834;4.364;2023-01-15T18:06:48;9.30;69.70
71879;DHT22;59755;43.834;4.364;2023-01-15T18:09:16;9.20;70.00
71879;DHT22;59755;43.834;4.364;2023-01-15T18:11:42;9.20;70.10
71879;DHT22;59755;43.834;4.364;2023-01-15T18:14:07;9.10;70.10
71879;DHT22;59755;43.834;4.364;2023-01-15T18:16:33;9.10;70.30